TNCC/CUR METAR and TAF weather

Enter ICAO airport designator
Station Type Date Time Source
TNCC METAR 2020/12/05 04:00 UTC NOAA

TNCC 050400Z 10012KT 9999 SCT017 27/22 Q1013 NOSIG


Station Type Date Time Source
TNCC Decoded METAR 2020/12/05 04:00 UTC NOAA

Hato Airport, Curacao, Netherlands Antilles (TNCC) 12-12N 068-58W 67M
Dec 04, 2020 - 11:00 PM EST / 2020.12.05 0400 UTC
Wind: from the E (100 degrees) at 14 MPH (12 KT):0
Visibility: greater than 7 mile(s):0
Sky conditions: partly cloudy
Temperature: 80 F (27 C)
Dew Point: 71 F (22 C)
Relative Humidity: 74%
Pressure (altimeter): 29.91 in. Hg (1013 hPa)
ob: TNCC 050400Z 10012KT 9999 SCT017 27/22 Q1013 NOSIG
cycle: 4

Station Type Date Time Source
TNCC TAF 2020/12/05 06:30 UTC NOAA

TAF TNCC 050515Z 0506/0606 08011KT 9999 SCT020 PROB40
TEMPO 0506/0606 7000 SHRA BKN015

Example: see airport list